createdAt,value
2022-08-09T00:01:17.446Z,17.36
2022-08-09T00:04:25.210Z,17.43
2022-08-09T00:07:10.504Z,17.30
2022-08-09T00:09:51.787Z,17.24
2022-08-09T00:12:36.866Z,17.18
2022-08-09T00:15:16.959Z,17.19
2022-08-09T00:18:10.455Z,17.10
2022-08-09T00:21:00.726Z,17.13
2022-08-09T00:23:55.199Z,17.11
2022-08-09T00:26:32.849Z,17.08
2022-08-09T00:29:39.418Z,17.05
2022-08-09T00:32:25.802Z,17.08
2022-08-09T00:35:14.364Z,17.10
2022-08-09T00:37:52.986Z,17.22
2022-08-09T00:40:34.583Z,17.22
2022-08-09T00:44:11.856Z,17.21
2022-08-09T00:46:56.040Z,17.18
2022-08-09T00:49:21.230Z,17.22
2022-08-09T00:51:56.031Z,17.24
2022-08-09T00:54:31.464Z,17.27
2022-08-09T00:57:13.924Z,17.27
2022-08-09T01:00:21.207Z,17.22
2022-08-09T01:03:17.534Z,17.25
2022-08-09T01:06:17.907Z,17.30
2022-08-09T01:09:16.314Z,17.29
2022-08-09T01:12:05.772Z,17.23
2022-08-09T01:15:17.561Z,17.12
2022-08-09T01:18:14.251Z,17.06
2022-08-09T01:21:09.970Z,17.02
2022-08-09T01:24:03.012Z,16.97
2022-08-09T01:27:14.811Z,16.89
2022-08-09T01:30:28.611Z,16.89
2022-08-09T01:33:27.870Z,16.87
2022-08-09T01:36:30.424Z,16.84
2022-08-09T01:39:15.820Z,16.82
2022-08-09T01:42:10.970Z,16.85
2022-08-09T01:44:55.030Z,16.80
2022-08-09T01:47:47.484Z,16.79
2022-08-09T01:50:36.945Z,16.77
2022-08-09T01:53:28.946Z,16.76
2022-08-09T01:56:09.743Z,16.79
2022-08-09T01:58:50.534Z,16.76
2022-08-09T02:01:30.574Z,16.68
2022-08-09T02:04:37.271Z,16.70
2022-08-09T02:08:39.436Z,16.66
2022-08-09T02:10:33.834Z,16.66
2022-08-09T02:13:16.346Z,16.79
2022-08-09T02:16:03.752Z,16.81
2022-08-09T02:18:47.736Z,16.73
2022-08-09T02:21:38.363Z,16.73
2022-08-09T02:24:26.863Z,16.66
2022-08-09T02:27:12.747Z,16.56
2022-08-09T02:30:02.499Z,16.49
2022-08-09T02:32:55.681Z,16.43
2022-08-09T02:36:03.144Z,16.39
2022-08-09T02:38:55.941Z,16.33
2022-08-09T02:41:56.037Z,16.30
2022-08-09T02:44:54.343Z,16.24
2022-08-09T02:47:57.624Z,16.21
2022-08-09T02:50:56.509Z,16.14
2022-08-09T02:53:43.159Z,16.13
2022-08-09T02:56:51.587Z,16.04
2022-08-09T02:59:36.998Z,16.00
2022-08-09T03:02:12.146Z,15.97
2022-08-09T03:05:01.758Z,15.95
2022-08-09T03:07:37.763Z,15.93
2022-08-09T03:10:27.084Z,15.86
2022-08-09T03:13:00.527Z,15.84
2022-08-09T03:16:05.873Z,15.77
2022-08-09T03:18:53.074Z,15.72
2022-08-09T03:21:41.410Z,15.74
2022-08-09T03:24:42.605Z,15.68
2022-08-09T03:27:45.432Z,15.68
2022-08-09T03:30:36.951Z,15.58
2022-08-09T03:33:20.877Z,15.56
2022-08-09T03:36:12.342Z,15.54
2022-08-09T03:38:54.602Z,15.50
2022-08-09T03:41:48.353Z,15.51
2022-08-09T03:44:35.850Z,15.51
2022-08-09T03:47:11.664Z,15.56
2022-08-09T03:49:58.871Z,15.52
2022-08-09T03:52:48.818Z,15.54
2022-08-09T03:55:30.011Z,15.50
2022-08-09T03:58:21.095Z,15.43
2022-08-09T04:00:58.949Z,15.41
2022-08-09T04:04:00.505Z,15.40
2022-08-09T04:06:49.381Z,15.35
2022-08-09T04:09:48.187Z,15.34
2022-08-09T04:12:51.463Z,15.32
2022-08-09T04:15:38.785Z,15.39
2022-08-09T04:18:38.100Z,15.37
2022-08-09T04:21:26.624Z,15.45
2022-08-09T04:24:07.085Z,15.49
2022-08-09T04:26:42.456Z,15.55
2022-08-09T04:29:17.448Z,15.62
2022-08-09T04:32:04.790Z,15.65
2022-08-09T04:34:54.201Z,15.77
2022-08-09T04:37:42.081Z,15.78
2022-08-09T04:40:46.710Z,15.92
2022-08-09T04:43:22.827Z,16.01
2022-08-09T04:45:59.936Z,16.26
2022-08-09T04:48:39.899Z,16.31
2022-08-09T04:51:29.732Z,16.40
2022-08-09T04:54:12.200Z,16.60
2022-08-09T04:57:03.819Z,16.70
2022-08-09T04:59:34.183Z,16.87
2022-08-09T05:02:23.727Z,17.04
2022-08-09T05:05:32.034Z,17.23
2022-08-09T05:08:15.270Z,17.43
2022-08-09T05:10:57.547Z,17.69
2022-08-09T05:13:43.144Z,17.96
2022-08-09T05:16:31.460Z,18.23
2022-08-09T05:19:24.304Z,18.49
2022-08-09T05:22:08.012Z,18.75
2022-08-09T05:25:18.508Z,19.06
2022-08-09T05:28:00.365Z,19.32
2022-08-09T05:30:41.737Z,19.56
2022-08-09T05:33:32.711Z,19.78
2022-08-09T05:36:16.358Z,20.00
2022-08-09T05:39:05.165Z,20.24
2022-08-09T05:41:56.157Z,20.62
2022-08-09T05:44:40.873Z,20.78
2022-08-09T05:47:24.504Z,21.13
2022-08-09T05:50:25.298Z,21.29
2022-08-09T05:53:11.773Z,21.63
2022-08-09T05:56:05.158Z,21.90
2022-08-09T05:58:43.646Z,22.23
2022-08-09T06:01:34.134Z,22.16
2022-08-09T06:04:23.400Z,22.19
2022-08-09T06:07:21.183Z,22.66
2022-08-09T06:10:04.802Z,22.98
2022-08-09T06:12:43.255Z,23.14
2022-08-09T06:15:24.120Z,23.40
2022-08-09T06:18:05.760Z,23.52
2022-08-09T06:20:42.891Z,23.48
2022-08-09T06:23:57.658Z,23.76
2022-08-09T06:26:43.611Z,23.93
2022-08-09T06:29:21.941Z,24.02
2022-08-09T06:32:18.379Z,24.35
2022-08-09T06:35:09.409Z,24.58
2022-08-09T06:38:05.755Z,24.60
2022-08-09T06:40:45.008Z,24.79
2022-08-09T06:43:21.019Z,25.09
2022-08-09T06:46:06.940Z,24.99
2022-08-09T06:48:59.982Z,25.42
2022-08-09T06:51:39.126Z,25.28
2022-08-09T06:54:20.396Z,25.46
2022-08-09T06:57:03.639Z,25.78
2022-08-09T07:00:52.327Z,26.17
2022-08-09T07:02:52.537Z,26.36
2022-08-09T07:05:24.803Z,26.48
2022-08-09T07:08:26.375Z,26.42
2022-08-09T07:11:03.473Z,26.21
2022-08-09T07:14:04.172Z,26.59
2022-08-09T07:17:01.594Z,27.03
2022-08-09T07:19:41.548Z,26.78
2022-08-09T07:22:34.197Z,26.85
2022-08-09T07:25:10.349Z,26.96
2022-08-09T07:27:53.299Z,26.95
2022-08-09T07:30:35.750Z,27.19
2022-08-09T07:33:24.163Z,26.95
2022-08-09T07:36:03.651Z,26.97
2022-08-09T07:38:42.025Z,27.16
2022-08-09T07:41:12.950Z,27.38
2022-08-09T07:43:55.967Z,27.58
2022-08-09T07:46:28.925Z,26.93
2022-08-09T07:49:03.334Z,27.35
2022-08-09T07:52:04.744Z,27.53
2022-08-09T07:54:51.408Z,27.69
2022-08-09T07:57:47.383Z,27.90
2022-08-09T08:00:35.801Z,28.10
2022-08-09T08:03:19.791Z,27.89
2022-08-09T08:06:21.204Z,27.59
2022-08-09T08:09:04.452Z,28.08
2022-08-09T08:12:09.715Z,28.24
2022-08-09T08:14:35.988Z,28.38
2022-08-09T08:17:35.253Z,28.56
2022-08-09T08:20:13.957Z,28.65
2022-08-09T08:22:52.025Z,28.67
2022-08-09T08:25:44.516Z,28.09
2022-08-09T08:28:32.087Z,28.14
2022-08-09T08:31:14.867Z,27.78
2022-08-09T08:33:56.889Z,27.86
2022-08-09T08:36:37.533Z,28.15
2022-08-09T08:39:17.836Z,28.52
2022-08-09T08:41:58.855Z,28.42
2022-08-09T08:44:32.636Z,28.60
2022-08-09T08:47:16.720Z,28.46
2022-08-09T08:49:58.437Z,28.73
2022-08-09T08:52:57.431Z,28.50
2022-08-09T08:55:32.872Z,28.38
2022-08-09T08:58:16.734Z,27.96
2022-08-09T09:01:08.915Z,27.38
2022-08-09T09:04:06.467Z,26.81
2022-08-09T09:06:47.788Z,27.06
2022-08-09T09:09:58.008Z,27.22
2022-08-09T09:12:40.622Z,27.42
2022-08-09T09:15:28.449Z,27.80
2022-08-09T09:18:12.531Z,27.78
2022-08-09T09:20:57.701Z,27.42
2022-08-09T09:23:49.899Z,27.51
2022-08-09T09:26:27.784Z,27.88
2022-08-09T09:29:10.987Z,28.19
2022-08-09T09:32:15.423Z,28.97
2022-08-09T09:35:15.906Z,29.06
2022-08-09T09:38:01.937Z,29.25
2022-08-09T09:40:46.280Z,29.64
2022-08-09T09:43:27.736Z,29.42
2022-08-09T09:49:49.811Z,28.24
2022-08-09T09:52:41.379Z,28.52
2022-08-09T09:55:34.465Z,28.72
2022-08-09T09:58:18.765Z,28.82
2022-08-09T10:01:00.032Z,29.01
2022-08-09T10:04:11.770Z,29.09
2022-08-09T10:06:52.060Z,29.12
2022-08-09T10:09:54.955Z,29.54
2022-08-09T10:12:43.809Z,29.92
2022-08-09T10:16:09.660Z,28.94
2022-08-09T10:18:35.201Z,28.73
2022-08-09T10:21:17.989Z,28.78
2022-08-09T10:24:00.353Z,28.62
2022-08-09T10:26:41.748Z,28.60
2022-08-09T10:29:59.344Z,28.37
2022-08-09T10:32:40.262Z,28.36
2022-08-09T10:35:15.736Z,29.27
2022-08-09T10:37:56.518Z,29.75
2022-08-09T10:40:44.606Z,30.33
2022-08-09T10:43:36.091Z,30.63
2022-08-09T10:46:30.741Z,30.18
2022-08-09T10:49:50.192Z,29.90
2022-08-09T10:53:00.187Z,29.89
2022-08-09T10:55:58.699Z,30.18
2022-08-09T10:58:44.037Z,30.20
2022-08-09T11:03:13.215Z,30.31
2022-08-09T11:04:56.137Z,30.62
2022-08-09T11:07:57.832Z,30.76
2022-08-09T11:10:53.137Z,29.94
2022-08-09T11:13:50.485Z,30.28
2022-08-09T11:16:53.572Z,30.48
2022-08-09T11:20:12.252Z,30.35
2022-08-09T11:23:10.155Z,30.47
2022-08-09T11:25:48.509Z,30.03
2022-08-09T11:28:56.135Z,29.66
2022-08-09T11:31:53.073Z,29.55
2022-08-09T11:35:02.825Z,29.47
2022-08-09T11:37:43.241Z,29.71
2022-08-09T11:40:48.418Z,29.60
2022-08-09T11:43:44.018Z,29.72
2022-08-09T11:46:57.815Z,29.96
2022-08-09T11:50:55.431Z,29.82
2022-08-09T11:53:59.299Z,29.62
2022-08-09T11:56:42.546Z,29.33
2022-08-09T11:59:37.957Z,29.23
2022-08-09T12:02:37.620Z,29.22
2022-08-09T12:05:26.023Z,29.07
2022-08-09T12:08:09.340Z,29.21
2022-08-09T12:10:58.340Z,29.43
2022-08-09T12:14:09.755Z,29.59
2022-08-09T12:16:48.506Z,29.67
2022-08-09T12:19:42.744Z,29.64
2022-08-09T12:22:20.730Z,29.45
2022-08-09T12:25:10.825Z,29.30
2022-08-09T12:29:11.080Z,29.31
2022-08-09T12:30:53.251Z,29.15
2022-08-09T12:33:58.815Z,29.11
2022-08-09T12:36:59.123Z,29.08
2022-08-09T12:40:08.607Z,29.02
2022-08-09T12:42:46.231Z,29.19
2022-08-09T12:45:34.299Z,28.95
2022-08-09T12:48:33.415Z,28.85
2022-08-09T12:51:52.278Z,28.94
2022-08-09T12:54:23.972Z,28.84
2022-08-09T12:57:07.629Z,28.84
2022-08-09T13:00:02.893Z,28.71
2022-08-09T13:02:56.553Z,28.65
2022-08-09T13:06:10.660Z,28.70
2022-08-09T13:09:08.856Z,28.91
2022-08-09T13:12:01.978Z,28.79
2022-08-09T13:14:47.687Z,28.82
2022-08-09T13:18:03.341Z,28.69
2022-08-09T13:21:04.514Z,28.82
2022-08-09T13:24:16.462Z,28.67
2022-08-09T13:26:57.801Z,28.48
2022-08-09T13:30:03.313Z,28.27
2022-08-09T13:32:54.931Z,28.26
2022-08-09T13:36:37.826Z,28.34
2022-08-09T13:38:57.456Z,28.43
2022-08-09T13:41:59.096Z,28.56
2022-08-09T13:44:48.710Z,28.66
2022-08-09T13:47:51.215Z,28.58
2022-08-09T13:50:36.705Z,28.74
2022-08-09T13:53:20.083Z,28.90
2022-08-09T13:56:28.940Z,29.09
2022-08-09T13:59:20.235Z,29.13
2022-08-09T14:02:04.281Z,29.19
2022-08-09T14:04:49.436Z,29.10
2022-08-09T14:07:52.782Z,29.43
2022-08-09T14:10:49.168Z,29.99
2022-08-09T14:14:14.769Z,30.66
2022-08-09T14:16:28.717Z,30.73
2022-08-09T14:19:07.113Z,31.00
2022-08-09T14:21:53.091Z,31.18
2022-08-09T14:24:39.682Z,31.41
2022-08-09T14:27:28.993Z,31.62
2022-08-09T14:30:36.935Z,31.70
2022-08-09T14:33:11.655Z,30.88
2022-08-09T14:35:52.113Z,30.37
2022-08-09T14:38:27.825Z,30.55
2022-08-09T14:41:34.888Z,30.99
2022-08-09T14:44:32.621Z,31.10
2022-08-09T14:47:41.262Z,31.19
2022-08-09T14:50:20.034Z,30.72
2022-08-09T14:53:00.081Z,30.26
2022-08-09T14:55:37.988Z,30.49
2022-08-09T14:58:19.797Z,30.26
2022-08-09T15:00:57.748Z,30.31
2022-08-09T15:03:41.568Z,30.15
2022-08-09T15:06:25.302Z,30.32
2022-08-09T15:09:09.482Z,30.13
2022-08-09T15:11:46.751Z,29.99
2022-08-09T15:14:38.806Z,30.44
2022-08-09T15:17:17.203Z,31.07
2022-08-09T15:19:59.494Z,31.01
2022-08-09T15:22:46.691Z,30.95
2022-08-09T15:25:39.273Z,30.48
2022-08-09T15:28:24.121Z,30.33
2022-08-09T15:31:17.917Z,30.10
2022-08-09T15:34:17.440Z,30.13
2022-08-09T15:37:23.504Z,30.07
2022-08-09T15:39:56.363Z,30.26
2022-08-09T15:42:35.841Z,30.08
2022-08-09T15:45:21.453Z,30.57
2022-08-09T15:48:06.493Z,30.84
2022-08-09T15:51:11.383Z,30.74
2022-08-09T15:54:27.469Z,30.98
2022-08-09T15:57:01.535Z,30.72
2022-08-09T15:59:51.894Z,31.04
2022-08-09T16:02:30.378Z,31.62
2022-08-09T16:05:08.662Z,32.30
2022-08-09T16:07:50.700Z,32.62
2022-08-09T16:10:55.981Z,33.01
2022-08-09T16:14:04.272Z,33.24
2022-08-09T16:16:49.516Z,31.96
2022-08-09T16:19:36.649Z,32.11
2022-08-09T16:22:29.799Z,33.01
2022-08-09T16:25:04.535Z,33.32
2022-08-09T16:27:38.431Z,33.17
2022-08-09T16:30:28.500Z,32.48
2022-08-09T16:33:08.634Z,31.55
2022-08-09T16:35:58.133Z,30.73
2022-08-09T16:38:31.800Z,29.88
2022-08-09T16:41:19.874Z,29.69
2022-08-09T16:43:58.246Z,29.43
2022-08-09T16:46:54.906Z,29.52
2022-08-09T16:50:29.160Z,29.33
2022-08-09T16:52:40.808Z,29.05
2022-08-09T16:55:27.340Z,29.23
2022-08-09T16:58:39.684Z,30.98
2022-08-09T17:01:16.869Z,32.41
2022-08-09T17:04:09.574Z,33.89
2022-08-09T17:08:43.016Z,34.16
2022-08-09T17:10:17.845Z,34.15
2022-08-09T17:13:01.010Z,32.94
2022-08-09T17:16:00.178Z,32.39
2022-08-09T17:18:47.654Z,31.19
2022-08-09T17:21:31.152Z,30.87
2022-08-09T17:24:28.400Z,30.82
2022-08-09T17:27:06.790Z,30.36
2022-08-09T17:29:48.187Z,30.25
2022-08-09T17:32:38.621Z,29.56
2022-08-09T17:35:13.312Z,28.58
2022-08-09T17:38:11.868Z,28.17
2022-08-09T17:40:58.941Z,27.71
2022-08-09T17:43:34.642Z,27.39
2022-08-09T17:46:20.977Z,27.10
2022-08-09T17:49:12.323Z,26.89
2022-08-09T17:51:56.512Z,26.66
2022-08-09T17:54:25.386Z,26.58
2022-08-09T17:57:08.119Z,26.37
2022-08-09T18:00:05.440Z,26.26
2022-08-09T18:02:57.885Z,26.22
2022-08-09T18:05:43.441Z,26.13
2022-08-09T18:08:28.073Z,26.05
2022-08-09T18:10:58.862Z,26.02
2022-08-09T18:13:55.574Z,25.76
2022-08-09T18:16:49.298Z,25.81
2022-08-09T18:20:55.429Z,25.67
2022-08-09T18:22:40.176Z,25.52
2022-08-09T18:25:52.632Z,25.42
2022-08-09T18:30:38.192Z,25.39
2022-08-09T18:31:51.429Z,25.35
2022-08-09T18:34:27.494Z,25.28
2022-08-09T18:37:10.566Z,25.15
2022-08-09T18:40:04.175Z,25.01
2022-08-09T18:42:43.863Z,24.90
2022-08-09T18:46:44.695Z,24.80
2022-08-09T18:48:30.081Z,24.71
2022-08-09T18:51:12.832Z,24.66
2022-08-09T18:54:00.930Z,24.59
2022-08-09T18:56:53.882Z,24.52
2022-08-09T18:59:37.726Z,24.48
2022-08-09T19:02:30.837Z,24.36
2022-08-09T19:05:20.319Z,24.23
2022-08-09T19:08:14.207Z,24.18
2022-08-09T19:10:57.832Z,23.99
2022-08-09T19:13:51.175Z,23.98
2022-08-09T19:16:21.413Z,24.00
2022-08-09T19:19:01.888Z,24.00
2022-08-09T19:22:12.170Z,23.91
2022-08-09T19:25:09.728Z,23.81
2022-08-09T19:27:56.991Z,23.73
2022-08-09T19:30:44.443Z,23.64
2022-08-09T19:33:22.830Z,23.62
2022-08-09T19:36:00.297Z,23.53
2022-08-09T19:38:39.805Z,23.56
2022-08-09T19:41:33.153Z,23.55
2022-08-09T19:44:12.555Z,23.52
2022-08-09T19:46:50.310Z,23.47
2022-08-09T19:50:07.382Z,23.45
2022-08-09T19:52:52.185Z,23.44
2022-08-09T19:56:03.457Z,23.32
2022-08-09T19:59:18.392Z,23.31
2022-08-09T20:02:03.491Z,23.18
2022-08-09T20:04:55.639Z,23.23
2022-08-09T20:07:59.097Z,23.10
2022-08-09T20:10:39.102Z,23.14
2022-08-09T20:13:32.203Z,22.99
2022-08-09T20:16:37.028Z,22.92
2022-08-09T20:19:48.386Z,22.89
2022-08-09T20:22:32.392Z,22.82
2022-08-09T20:25:30.802Z,22.74
2022-08-09T20:28:34.302Z,22.73
2022-08-09T20:31:51.224Z,22.67
2022-08-09T20:34:33.597Z,22.54
2022-08-09T20:37:06.649Z,22.49
2022-08-09T20:40:14.891Z,22.57
2022-08-09T20:42:59.300Z,22.46
2022-08-09T20:45:59.497Z,22.48
2022-08-09T20:48:45.249Z,22.46
2022-08-09T20:51:30.613Z,22.47
2022-08-09T20:54:20.318Z,22.48
2022-08-09T20:56:58.756Z,22.45
2022-08-09T21:00:20.214Z,22.46
2022-08-09T21:02:51.617Z,22.43
2022-08-09T21:05:57.616Z,22.41
2022-08-09T21:08:36.775Z,22.30
2022-08-09T21:14:05.388Z,22.23
2022-08-09T21:16:49.955Z,22.15
2022-08-09T21:20:17.018Z,22.13
2022-08-09T21:22:38.265Z,22.05
2022-08-09T21:25:37.997Z,22.06
2022-08-09T21:28:12.009Z,22.04
2022-08-09T21:30:56.218Z,22.06
2022-08-09T21:33:36.275Z,22.08
2022-08-09T21:36:19.367Z,22.03
2022-08-09T21:38:57.976Z,22.05
2022-08-09T21:42:05.479Z,22.04
2022-08-09T21:44:57.536Z,21.81
2022-08-09T21:47:37.844Z,21.63
2022-08-09T21:50:25.355Z,21.77
2022-08-09T21:53:40.273Z,21.78
2022-08-09T21:56:42.973Z,21.74
2022-08-09T21:59:42.787Z,21.81
2022-08-09T22:02:36.130Z,21.74
2022-08-09T22:05:17.187Z,21.79
2022-08-09T22:08:15.008Z,21.82
2022-08-09T22:11:49.773Z,21.74
2022-08-09T22:14:01.254Z,21.66
2022-08-09T22:16:40.277Z,21.69
2022-08-09T22:19:53.253Z,21.71
2022-08-09T22:22:39.701Z,21.66
2022-08-09T22:26:08.139Z,21.71
2022-08-09T22:28:32.737Z,21.74
2022-08-09T22:31:08.843Z,21.64
2022-08-09T22:33:55.196Z,21.56
2022-08-09T22:36:45.690Z,21.50
2022-08-09T22:39:57.259Z,21.49
2022-08-09T22:42:23.918Z,21.43
2022-08-09T22:48:10.960Z,21.39
2022-08-09T22:48:35.018Z,21.43
2022-08-09T22:51:23.758Z,21.36
2022-08-09T22:54:04.790Z,21.38
2022-08-09T22:56:46.453Z,21.25
2022-08-09T22:59:55.658Z,21.20
2022-08-09T23:02:35.175Z,21.23
2022-08-09T23:05:20.600Z,21.20
2022-08-09T23:08:29.354Z,21.14
2022-08-09T23:11:15.807Z,21.14
2022-08-09T23:13:59.753Z,21.18
2022-08-09T23:16:43.140Z,21.15
2022-08-09T23:19:17.790Z,21.06
2022-08-09T23:22:10.117Z,20.98
2022-08-09T23:24:39.239Z,20.96
2022-08-09T23:27:16.634Z,20.93
2022-08-09T23:30:03.094Z,20.79
2022-08-09T23:32:39.828Z,20.82
2022-08-09T23:35:18.125Z,20.82
2022-08-09T23:37:58.662Z,20.84
2022-08-09T23:40:41.610Z,20.79
2022-08-09T23:43:18.053Z,20.67
2022-08-09T23:45:56.798Z,20.68
2022-08-09T23:48:37.184Z,20.62
2022-08-09T23:51:17.809Z,20.60
2022-08-09T23:54:02.594Z,20.54
2022-08-09T23:56:54.963Z,20.58
2022-08-09T23:59:54.887Z,20.55
